Time;durP1;ratioP1;P1;durP2;ratioP2;P2;SDS_P1;SDS_P2;PMS_P1;PMS_P2;Temp;Humidity;BMP_temperature;BMP_pressure;BME280_temperature;BME280_humidity;BME280_pressure;Samples;Min_cycle;Max_cycle;Signal;HPM_P1;HPM_P2
2023/08/04 00:01:46;;;;;;;11.60;4.80;;;;;;;16.03;98.36;100936.16;5056765;28;20056;-64
2023/08/04 00:04:12;;;;;;;15.48;4.70;;;;;;;15.99;98.41;100929.09;5056503;28;20060;-65
2023/08/04 00:06:37;;;;;;;17.98;5.07;;;;;;;15.99;98.18;100936.22;5022130;28;20079;-63
2023/08/04 00:09:02;;;;;;;13.30;4.75;;;;;;;15.92;98.19;100927.38;5038592;28;20029;-64
2023/08/04 00:11:28;;;;;;;13.07;4.70;;;;;;;16.00;98.20;100936.19;5056160;28;20041;-63
2023/08/04 00:13:53;;;;;;;16.02;4.63;;;;;;;15.94;97.94;100946.91;5038689;28;20033;-65
2023/08/04 00:16:18;;;;;;;13.68;4.85;;;;;;;15.89;98.29;100946.09;5056186;28;20021;-64
2023/08/04 00:18:44;;;;;;;15.48;5.30;;;;;;;15.89;98.34;100939.88;5056265;28;20056;-65
2023/08/04 00:21:09;;;;;;;12.30;4.95;;;;;;;15.84;97.76;100949.66;5056548;28;20378;-64
2023/08/04 00:23:35;;;;;;;15.57;5.25;;;;;;;15.77;97.84;100949.75;5056425;28;20098;-64
2023/08/04 00:26:00;;;;;;;13.73;5.40;;;;;;;15.68;98.32;100956.94;5056081;28;20461;-65
2023/08/04 00:28:25;;;;;;;13.43;5.18;;;;;;;15.64;98.46;100952.50;5056041;28;20040;-65
2023/08/04 00:30:51;;;;;;;13.88;5.18;;;;;;;15.64;98.90;100950.75;5056480;28;20041;-64
2023/08/04 00:33:16;;;;;;;20.40;5.20;;;;;;;15.60;98.60;100948.97;5055905;28;20425;-63
2023/08/04 00:35:42;;;;;;;13.55;5.30;;;;;;;15.53;98.93;100949.91;5055893;28;20063;-65
2023/08/04 00:38:07;;;;;;;15.48;5.32;;;;;;;15.49;99.01;100958.81;5055808;28;20037;-64
2023/08/04 00:40:32;;;;;;;15.75;5.70;;;;;;;15.44;99.42;100964.16;5055968;28;20056;-63
2023/08/04 00:42:58;;;;;;;11.02;5.25;;;;;;;15.38;99.47;100972.22;5055848;28;20076;-64
2023/08/04 00:45:25;;;;;;;12.45;5.25;;;;;;;15.31;100.00;100966.94;5055882;28;20053;-63
2023/08/04 00:47:52;;;;;;;15.88;5.57;;;;;;;15.24;100.00;100974.06;5055806;28;20458;-63
2023/08/04 00:50:18;;;;;;;16.08;5.63;;;;;;;15.15;100.00;100969.69;5055679;28;20032;-63
2023/08/04 00:52:44;;;;;;;17.67;5.20;;;;;;;15.07;100.00;100968.84;5055664;28;20111;-64
2023/08/04 00:55:12;;;;;;;11.98;5.20;;;;;;;15.05;100.00;100972.44;5055621;28;20528;-64
2023/08/04 00:57:39;;;;;;;17.75;5.72;;;;;;;14.97;100.00;100973.34;5055683;28;20523;-64
2023/08/04 01:00:06;;;;;;;14.95;5.85;;;;;;;14.92;100.00;100976.94;5055404;28;20041;-64
2023/08/04 01:02:31;;;;;;;15.63;5.60;;;;;;;14.93;100.00;100976.91;5037458;28;20133;-64
2023/08/04 01:04:57;;;;;;;10.23;5.20;;;;;;;14.94;100.00;100976.00;5055415;28;20468;-64
2023/08/04 01:07:25;;;;;;;13.45;5.25;;;;;;;14.91;100.00;100976.03;5054234;28;20482;-65
2023/08/04 01:10:02;;;;;;;12.23;5.07;;;;;;;14.97;100.00;100980.44;5053580;28;20104;-63
2023/08/04 01:12:43;;;;;;;18.73;6.25;;;;;;;14.94;100.00;100989.31;5055325;28;20033;-65
2023/08/04 01:15:10;;;;;;;14.82;5.53;;;;;;;14.94;100.00;100983.09;5055233;28;20029;-64
2023/08/04 01:17:35;;;;;;;11.05;5.25;;;;;;;14.94;100.00;100988.44;5054891;28;20017;-63
2023/08/04 01:20:01;;;;;;;17.48;5.57;;;;;;;14.94;100.00;100984.00;5037190;28;20017;-63
2023/08/04 01:22:27;;;;;;;13.75;5.25;;;;;;;14.96;100.00;100990.22;5055106;28;20475;-63
2023/08/04 01:24:53;;;;;;;15.23;6.05;;;;;;;14.90;100.00;100992.91;5054953;28;20047;-64
2023/08/04 01:27:50;;;;;;;17.83;5.95;;;;;;;14.91;100.00;100993.78;5055185;28;20182;-62
2023/08/04 01:30:20;;;;;;;12.45;5.47;;;;;;;14.79;100.00;100984.09;5038907;28;20511;-63
2023/08/04 01:32:46;;;;;;;13.65;5.38;;;;;;;14.85;100.00;100994.69;5055037;28;20068;-64
2023/08/04 01:35:12;;;;;;;13.98;5.63;;;;;;;14.81;100.00;101000.91;5054659;28;20159;-63
2023/08/04 01:37:38;;;;;;;13.45;5.55;;;;;;;14.81;100.00;100994.69;5054808;28;20119;-65
2023/08/04 01:40:03;;;;;;;16.70;5.10;;;;;;;14.76;100.00;101005.38;5054716;28;20021;-63
2023/08/04 01:42:29;;;;;;;16.48;6.15;;;;;;;14.71;100.00;100997.41;5054462;28;20033;-64
2023/08/04 01:44:54;;;;;;;17.20;6.00;;;;;;;14.68;100.00;101002.72;5054856;28;20029;-64
2023/08/04 01:47:20;;;;;;;13.73;5.40;;;;;;;14.58;100.00;101003.66;5054282;28;20045;-64
2023/08/04 01:49:45;;;;;;;13.57;5.60;;;;;;;14.57;100.00;101001.91;5054468;28;20562;-63
2023/08/04 01:52:11;;;;;;;11.77;5.63;;;;;;;14.59;100.00;101008.09;5053545;28;20025;-64
2023/08/04 01:54:37;;;;;;;17.02;6.13;;;;;;;14.53;100.00;101002.78;5054562;28;20020;-63
2023/08/04 01:57:02;;;;;;;14.18;6.07;;;;;;;14.50;100.00;101010.78;5054486;28;20104;-64
2023/08/04 01:59:28;;;;;;;18.77;5.90;;;;;;;14.51;100.00;101005.44;5054336;28;20029;-64
2023/08/04 02:01:53;;;;;;;11.15;5.70;;;;;;;14.63;100.00;101007.19;5054587;28;20033;-64
2023/08/04 02:04:19;;;;;;;16.48;5.68;;;;;;;14.61;100.00;101005.44;5054252;28;20030;-64
2023/08/04 02:06:44;;;;;;;12.70;5.68;;;;;;;14.62;100.00;101010.75;5054292;28;20052;-64
2023/08/04 02:09:11;;;;;;;18.20;6.07;;;;;;;14.59;100.00;101005.41;5054121;28;20033;-63
2023/08/04 02:11:36;;;;;;;15.05;5.97;;;;;;;14.57;100.00;101009.88;5036049;28;20025;-63
2023/08/04 02:14:02;;;;;;;19.85;6.00;;;;;;;14.54;100.00;101020.50;5054412;28;20041;-65
2023/08/04 02:16:27;;;;;;;12.30;5.68;;;;;;;14.55;100.00;101016.06;5054065;28;20036;-63
2023/08/04 02:19:01;;;;;;;16.90;5.85;;;;;;;14.56;100.00;101024.06;5053820;28;20028;-64
2023/08/04 02:21:27;;;;;;;15.02;6.07;;;;;;;14.58;100.00;101026.72;5052920;28;20029;-64
2023/08/04 02:23:52;;;;;;;13.50;5.60;;;;;;;14.59;100.00;101021.38;5054048;28;20134;-65
2023/08/04 02:26:17;;;;;;;13.45;5.40;;;;;;;14.62;100.00;101024.03;5053814;28;20029;-64
2023/08/04 02:28:43;;;;;;;13.40;5.07;;;;;;;14.64;100.00;101027.56;5053762;28;20024;-62
2023/08/04 02:31:08;;;;;;;14.43;5.72;;;;;;;14.63;100.00;101027.56;5035880;28;20478;-64
2023/08/04 02:33:33;;;;;;;18.20;5.60;;;;;;;14.55;100.00;101027.59;5053676;28;20094;-64
2023/08/04 02:36:02;;;;;;;20.90;6.22;;;;;;;14.55;100.00;101027.59;5053725;28;20036;-65
2023/08/04 02:38:28;;;;;;;14.00;5.95;;;;;;;14.55;100.00;101030.25;5053766;28;20044;-64
2023/08/04 02:40:59;;;;;;;16.73;5.70;;;;;;;14.57;100.00;101025.84;5053563;28;20395;-64
2023/08/04 02:43:25;;;;;;;14.40;6.13;;;;;;;14.60;100.00;101025.81;5053396;28;20085;-63
2023/08/04 02:45:51;;;;;;;13.75;5.82;;;;;;;14.64;100.00;101029.34;5053388;28;20558;-64
2023/08/04 02:48:16;;;;;;;12.98;5.55;;;;;;;14.68;100.00;101033.75;5053627;28;20021;-63
2023/08/04 02:50:42;;;;;;;12.32;5.50;;;;;;;14.71;100.00;101033.75;5053649;28;20502;-64
2023/08/04 02:53:07;;;;;;;11.60;5.88;;;;;;;14.68;100.00;101029.31;5053380;28;20029;-63
2023/08/04 02:55:32;;;;;;;14.35;5.95;;;;;;;14.70;100.00;101021.34;5053369;28;20033;-64
2023/08/04 02:57:58;;;;;;;20.55;6.50;;;;;;;14.66;100.00;101028.47;5053444;28;20094;-65
2023/08/04 03:00:25;;;;;;;15.80;6.05;;;;;;;14.66;100.00;101031.13;5052047;28;20033;-64
2023/08/04 03:02:50;;;;;;;12.63;6.18;;;;;;;14.61;100.00;101035.56;5053286;28;20048;-64
2023/08/04 03:05:16;;;;;;;15.30;6.50;;;;;;;14.56;100.00;101031.13;5053155;28;20478;-63
2023/08/04 03:07:41;;;;;;;16.05;6.35;;;;;;;14.55;100.00;101034.69;5053114;28;20035;-62
2023/08/04 03:10:07;;;;;;;18.17;6.43;;;;;;;14.56;100.00;101040.03;5053062;28;20390;-63
2023/08/04 03:12:32;;;;;;;15.63;5.90;;;;;;;14.59;100.00;101034.69;5052859;28;20076;-63
2023/08/04 03:14:58;;;;;;;16.65;6.65;;;;;;;14.59;100.00;101036.44;5053200;28;20025;-64
2023/08/04 03:17:23;;;;;;;15.40;6.55;;;;;;;14.57;100.00;101036.47;5053074;28;20483;-64
2023/08/04 03:19:49;;;;;;;12.80;6.05;;;;;;;14.55;100.00;101043.53;5052870;28;20475;-63
2023/08/04 03:22:14;;;;;;;13.30;6.20;;;;;;;14.57;100.00;101039.13;5035015;28;20116;-64
2023/08/04 03:24:41;;;;;;;14.35;6.15;;;;;;;14.62;100.00;101040.00;5053067;28;20031;-64
2023/08/04 03:27:06;;;;;;;10.98;5.75;;;;;;;14.64;100.00;101034.66;5052968;28;20017;-63
2023/08/04 03:29:31;;;;;;;16.33;6.55;;;;;;;14.66;100.00;101047.06;5053027;28;20083;-64
2023/08/04 03:31:57;;;;;;;14.50;6.82;;;;;;;14.61;100.00;101042.66;5052391;28;20021;-63
2023/08/04 03:34:22;;;;;;;14.35;6.68;;;;;;;14.61;100.00;101054.19;5052908;28;20025;-63
2023/08/04 03:36:48;;;;;;;13.73;6.60;;;;;;;14.61;100.00;101048.00;5052846;28;20482;-64
2023/08/04 03:39:13;;;;;;;13.00;6.30;;;;;;;14.60;100.00;101047.06;5035030;28;20029;-65
2023/08/04 03:41:39;;;;;;;15.10;5.82;;;;;;;14.65;100.00;101049.75;5052629;28;20394;-65
2023/08/04 03:44:04;;;;;;;15.20;6.20;;;;;;;14.67;100.00;101045.31;5052857;28;20056;-63
2023/08/04 03:46:30;;;;;;;15.10;6.18;;;;;;;14.71;100.00;101049.72;5052549;28;20509;-63
2023/08/04 03:48:55;;;;;;;15.10;6.38;;;;;;;14.72;100.00;101047.03;5052729;28;20120;-64
2023/08/04 03:51:22;;;;;;;13.45;6.60;;;;;;;14.76;100.00;101046.16;5052738;28;20419;-63
2023/08/04 03:53:48;;;;;;;15.00;6.40;;;;;;;14.78;100.00;101043.50;5052835;28;20040;-63
2023/08/04 03:56:13;;;;;;;13.55;6.22;;;;;;;14.80;100.00;101049.69;5052691;28;20391;-63
2023/08/04 03:58:39;;;;;;;13.00;6.20;;;;;;;14.80;100.00;101049.69;5052788;28;20490;-64
2023/08/04 04:01:04;;;;;;;13.10;6.68;;;;;;;14.76;100.00;101054.13;5051538;28;20482;-63
2023/08/04 04:03:29;;;;;;;12.75;6.10;;;;;;;14.75;100.00;101054.16;5052889;28;20033;-63
2023/08/04 04:05:55;;;;;;;13.75;6.15;;;;;;;14.72;100.00;101047.03;5052481;28;20086;-64
2023/08/04 04:08:20;;;;;;;11.75;6.10;;;;;;;14.72;100.00;101062.13;5052238;28;20116;-65
2023/08/04 04:10:48;;;;;;;10.68;5.95;;;;;;;14.70;100.00;101063.91;5052330;28;20032;-63
2023/08/04 04:13:13;;;;;;;16.45;6.53;;;;;;;14.75;100.00;101052.38;5052100;28;20060;-64
2023/08/04 04:15:38;;;;;;;12.35;6.35;;;;;;;14.74;100.00;101050.59;5052185;28;20443;-63
2023/08/04 04:18:04;;;;;;;13.98;5.72;;;;;;;14.76;100.00;101055.91;5052110;28;20037;-64
2023/08/04 04:20:29;;;;;;;15.93;6.10;;;;;;;14.81;100.00;101054.09;5052077;28;20367;-63
2023/08/04 04:22:55;;;;;;;14.57;6.18;;;;;;;14.85;100.00;101057.66;5052099;28;20053;-63
2023/08/04 04:25:20;;;;;;;18.58;6.35;;;;;;;14.84;100.00;101063.88;5052041;28;20108;-64
2023/08/04 04:27:45;;;;;;;13.30;5.78;;;;;;;14.85;100.00;101068.28;5052087;28;20021;-64
2023/08/04 04:30:11;;;;;;;11.82;6.10;;;;;;;14.86;100.00;101075.38;5052315;28;20111;-64
2023/08/04 04:32:36;;;;;;;17.55;6.32;;;;;;;14.86;100.00;101070.97;5051894;28;20033;-63
2023/08/04 04:35:02;;;;;;;17.10;6.90;;;;;;;14.85;100.00;101073.63;5052290;28;20533;-65
2023/08/04 04:37:27;;;;;;;15.73;6.22;;;;;;;14.84;100.00;101072.72;5051993;28;20482;-64
2023/08/04 04:39:52;;;;;;;12.48;6.50;;;;;;;14.90;100.00;101070.06;5051791;28;20028;-64
2023/08/04 04:42:18;;;;;;;16.70;6.90;;;;;;;14.86;100.00;101076.28;5051781;28;20518;-64
2023/08/04 04:44:43;;;;;;;12.07;6.35;;;;;;;14.80;100.00;101078.94;5054165;28;20115;-64
2023/08/04 04:47:09;;;;;;;15.20;6.93;;;;;;;14.81;100.00;101083.38;5055174;28;20077;-64
2023/08/04 04:49:35;;;;;;;14.57;6.60;;;;;;;14.78;100.00;101088.72;5055439;28;20040;-63
2023/08/04 04:52:00;;;;;;;14.45;6.75;;;;;;;14.74;100.00;101094.94;5055409;28;20025;-63
2023/08/04 04:54:26;;;;;;;16.00;6.75;;;;;;;14.79;100.00;101093.16;5055278;28;20104;-65
2023/08/04 04:56:51;;;;;;;18.38;7.40;;;;;;;14.72;100.00;101092.25;5054360;28;20522;-64
2023/08/04 04:59:17;;;;;;;13.63;7.60;;;;;;;14.70;100.00;101101.16;5055082;28;20029;-65
2023/08/04 05:01:43;;;;;;;19.02;7.45;;;;;;;14.69;100.00;101097.63;5055369;28;20421;-64
2023/08/04 05:04:09;;;;;;;16.23;7.22;;;;;;;14.73;100.00;101107.38;5055174;28;20025;-64
2023/08/04 05:06:34;;;;;;;14.35;7.43;;;;;;;14.84;100.00;101106.44;5055355;28;20032;-63
2023/08/04 05:08:59;;;;;;;16.20;7.28;;;;;;;14.90;100.00;101109.97;5037046;28;20067;-64
2023/08/04 05:11:25;;;;;;;14.90;6.93;;;;;;;14.92;100.00;101120.63;5054836;28;20039;-63
2023/08/04 05:13:50;;;;;;;13.70;7.45;;;;;;;14.93;100.00;101117.06;5055063;28;20143;-64
2023/08/04 05:16:16;;;;;;;14.32;7.13;;;;;;;14.90;100.00;101117.06;5037126;28;20033;-63
2023/08/04 05:18:41;;;;;;;17.30;7.40;;;;;;;14.87;100.00;101115.31;5054668;28;20383;-65
2023/08/04 05:21:06;;;;;;;11.80;6.95;;;;;;;14.93;100.00;101117.06;5036970;28;20029;-63
2023/08/04 05:23:32;;;;;;;12.73;6.93;;;;;;;14.97;100.00;101116.16;5054867;28;20028;-64
2023/08/04 05:25:57;;;;;;;15.05;7.45;;;;;;;14.98;100.00;101123.25;5054709;28;20108;-64
2023/08/04 05:28:28;;;;;;;14.77;7.00;;;;;;;14.99;100.00;101125.03;5054996;28;20544;-65
2023/08/04 05:31:05;;;;;;;14.05;7.10;;;;;;;15.06;100.00;101117.91;5054544;28;20040;-64
2023/08/04 05:33:32;;;;;;;14.73;7.07;;;;;;;15.11;100.00;101116.97;5054640;28;20025;-63
2023/08/04 05:35:58;;;;;;;12.45;7.20;;;;;;;15.15;100.00;101137.38;5054425;28;20025;-65
2023/08/04 05:38:24;;;;;;;22.42;7.38;;;;;;;15.20;100.00;101134.69;5054430;28;20029;-65
2023/08/04 05:40:51;;;;;;;15.40;6.85;;;;;;;15.27;100.00;101136.47;5054742;28;20032;-63
2023/08/04 05:43:16;;;;;;;15.48;7.47;;;;;;;15.32;100.00;101128.44;5054398;28;20446;-64
2023/08/04 05:45:45;;;;;;;15.68;7.40;;;;;;;15.37;100.00;101134.63;5052928;28;20739;-64
2023/08/04 05:48:10;;;;;;;20.05;7.38;;;;;;;15.47;100.00;101131.06;5054344;28;20043;-64
2023/08/04 05:50:37;;;;;;;17.60;7.78;;;;;;;15.57;100.00;101131.88;5054441;28;20025;-63
2023/08/04 05:53:03;;;;;;;18.23;7.80;;;;;;;15.68;100.00;101138.97;5054343;28;20154;-64
2023/08/04 05:55:28;;;;;;;15.57;7.47;;;;;;;15.84;100.00;101134.41;5053877;28;20021;-65
2023/08/04 05:57:56;;;;;;;18.73;7.95;;;;;;;15.98;100.00;101145.00;5054038;28;20078;-64
2023/08/04 06:00:22;;;;;;;12.55;7.10;;;;;;;16.08;100.00;101143.16;5054038;28;20070;-64
2023/08/04 06:02:47;;;;;;;18.05;7.78;;;;;;;16.14;100.00;101143.09;5053896;28;20021;-64
2023/08/04 06:05:12;;;;;;;16.30;8.10;;;;;;;16.15;100.00;101143.09;5035998;28;20375;-64
2023/08/04 06:07:39;;;;;;;18.13;7.68;;;;;;;16.32;100.00;101142.09;5053912;28;20025;-65
2023/08/04 06:10:05;;;;;;;13.68;7.28;;;;;;;16.47;100.00;101158.84;5053754;28;20033;-64
2023/08/04 06:12:31;;;;;;;13.75;7.63;;;;;;;16.69;100.00;101159.53;5053528;28;20021;-65
2023/08/04 06:14:56;;;;;;;14.98;7.22;;;;;;;16.86;100.00;101155.84;5053684;28;20025;-63
2023/08/04 06:17:21;;;;;;;14.88;7.95;;;;;;;16.93;100.00;101160.22;5053744;28;20510;-64
2023/08/04 06:19:47;;;;;;;15.63;7.68;;;;;;;17.08;100.00;101164.50;5053604;28;20032;-63
2023/08/04 06:22:15;;;;;;;15.13;7.53;;;;;;;17.10;99.62;101162.72;5053784;28;20037;-63
2023/08/04 06:24:41;;;;;;;15.55;7.90;;;;;;;17.25;100.00;101167.88;5035686;28;20060;-63
2023/08/04 06:27:07;;;;;;;17.75;7.82;;;;;;;17.41;100.00;101171.25;5053529;28;20083;-64
2023/08/04 06:29:33;;;;;;;15.35;8.25;;;;;;;17.56;99.71;101181.78;5053307;28;20494;-64
2023/08/04 06:31:59;;;;;;;12.35;7.65;;;;;;;17.59;99.19;101175.47;5053385;28;20029;-63
2023/08/04 06:34:24;;;;;;;15.15;8.32;;;;;;;17.68;99.28;101183.38;5053333;28;20213;-64
2023/08/04 06:36:49;;;;;;;15.55;7.97;;;;;;;17.75;98.92;101190.44;5053258;28;20111;-63
2023/08/04 06:39:15;;;;;;;19.25;8.32;;;;;;;17.94;98.67;101186.63;5053386;28;20029;-64
2023/08/04 06:41:41;;;;;;;15.27;7.45;;;;;;;18.17;97.21;101191.63;5035155;28;20064;-62
2023/08/04 06:44:07;;;;;;;18.30;7.70;;;;;;;18.45;97.96;101194.75;5053342;28;20482;-62
2023/08/04 06:46:32;;;;;;;15.38;8.18;;;;;;;18.59;94.47;101191.88;5052933;28;20098;-65
2023/08/04 06:48:58;;;;;;;11.63;6.63;;;;;;;18.71;93.56;101199.72;5053124;28;20029;-64
2023/08/04 06:51:23;;;;;;;13.98;6.45;;;;;;;18.86;92.35;101203.91;5051768;28;20109;-62
2023/08/04 06:53:49;;;;;;;14.63;6.80;;;;;;;19.06;91.44;101200.91;5053134;28;20098;-62
2023/08/04 06:56:14;;;;;;;15.55;6.07;;;;;;;19.18;90.35;101197.06;5052986;28;20379;-61
2023/08/04 06:58:39;;;;;;;12.40;5.93;;;;;;;19.25;90.66;101194.25;5053023;28;20048;-61
2023/08/04 07:01:05;;;;;;;12.93;5.53;;;;;;;19.23;89.72;101205.94;5053036;28;20033;-62
2023/08/04 07:03:30;;;;;;;11.23;5.38;;;;;;;19.16;90.30;101202.47;5034956;28;20037;-60
2023/08/04 07:05:55;;;;;;;11.10;5.53;;;;;;;19.14;91.53;101198.03;5052549;28;20088;-62
2023/08/04 07:08:21;;;;;;;11.48;5.35;;;;;;;19.12;91.77;101205.25;5052479;28;20032;-60
2023/08/04 07:10:47;;;;;;;12.30;5.15;;;;;;;19.19;92.16;101201.53;5035102;28;20033;-62
2023/08/04 07:13:12;;;;;;;9.88;4.60;;;;;;;19.17;91.95;101214.06;5052615;28;20056;-61
2023/08/04 07:15:38;;;;;;;10.15;5.05;;;;;;;19.17;91.44;101214.94;5034977;28;20107;-62
2023/08/04 07:18:03;;;;;;;13.48;5.53;;;;;;;19.17;93.25;101216.75;5052912;28;20082;-62
2023/08/04 07:20:30;;;;;;;10.52;5.00;;;;;;;19.18;92.84;101216.72;5052693;28;20470;-62
2023/08/04 07:22:55;;;;;;;12.77;4.78;;;;;;;19.18;90.85;101221.19;5052580;28;20124;-62
2023/08/04 07:25:21;;;;;;;9.05;4.35;;;;;;;19.11;90.39;101222.22;5052577;28;20017;-61
2023/08/04 07:27:46;;;;;;;10.70;3.97;;;;;;;19.09;90.87;101221.38;5052671;28;20170;-62
2023/08/04 07:30:13;;;;;;;9.40;3.88;;;;;;;19.09;91.90;101218.69;5034592;28;20029;-62
2023/08/04 07:32:39;;;;;;;12.48;4.15;;;;;;;19.14;90.59;101223.06;5052480;28;20367;-60
2023/08/04 07:35:04;;;;;;;9.70;3.78;;;;;;;19.16;90.62;101221.22;5034631;28;20029;-60
2023/08/04 07:37:30;;;;;;;7.60;3.42;;;;;;;19.18;89.83;101226.53;5052499;28;20029;-61
2023/08/04 07:39:55;;;;;;;7.40;3.40;;;;;;;19.20;88.13;101233.66;5052342;28;20036;-62
2023/08/04 07:42:20;;;;;;;7.97;3.35;;;;;;;19.18;89.26;101226.53;5052193;28;20037;-61
2023/08/04 07:44:46;;;;;;;9.95;3.40;;;;;;;19.10;88.29;101232.06;5052411;28;20527;-61
2023/08/04 07:47:11;;;;;;;11.75;3.42;;;;;;;19.10;88.23;101229.38;5051971;28;20049;-63
2023/08/04 07:49:37;;;;;;;10.73;3.40;;;;;;;19.14;88.37;101233.78;5052463;28;20039;-64
2023/08/04 07:52:02;;;;;;;9.82;3.65;;;;;;;19.21;89.06;101231.84;5052573;28;20428;-63
2023/08/04 07:54:27;;;;;;;7.65;3.30;;;;;;;19.30;88.88;101237.03;5051262;28;20548;-63
2023/08/04 07:56:53;;;;;;;5.63;2.72;;;;;;;19.41;88.57;101239.53;5052334;28;20467;-63
2023/08/04 07:59:18;;;;;;;9.68;3.10;;;;;;;19.46;86.76;101237.63;5052276;28;20025;-63
2023/08/04 08:01:44;;;;;;;7.38;2.83;;;;;;;19.56;87.96;101241.88;5052214;28;20033;-64
2023/08/04 08:04:09;;;;;;;6.30;2.90;;;;;;;19.56;86.66;101239.19;5052528;28;20385;-64
2023/08/04 08:06:36;;;;;;;6.97;3.25;;;;;;;19.65;85.80;101243.53;5052471;28;20108;-64
2023/08/04 08:09:01;;;;;;;8.60;3.22;;;;;;;19.74;86.16;101238.88;5052533;28;20041;-63
2023/08/04 08:11:27;;;;;;;6.43;3.15;;;;;;;19.84;85.56;101242.25;5052282;28;20504;-62
2023/08/04 08:13:52;;;;;;;9.35;3.53;;;;;;;20.03;85.66;101242.72;5034090;28;20104;-60
2023/08/04 08:16:18;;;;;;;7.85;3.30;;;;;;;20.07;83.75;101240.84;5052218;28;20445;-61
2023/08/04 08:18:43;;;;;;;8.93;3.50;;;;;;;20.09;84.66;101247.09;5036570;28;20041;-61
2023/08/04 08:21:10;;;;;;;8.88;3.50;;;;;;;20.09;82.52;101239.91;5055985;28;20061;-62
2023/08/04 08:23:36;;;;;;;6.20;3.00;;;;;;;20.24;82.38;101252.97;5055828;28;20025;-62
2023/08/04 08:26:03;;;;;;;5.45;2.95;;;;;;;20.47;83.87;101251.53;5055916;28;20021;-63
2023/08/04 08:28:28;;;;;;;7.75;2.97;;;;;;;20.63;80.98;101260.16;5055803;28;20538;-64
2023/08/04 08:30:54;;;;;;;5.85;2.70;;;;;;;20.68;77.58;101253.75;5056104;28;20124;-63
2023/08/04 08:33:20;;;;;;;5.15;2.90;;;;;;;20.70;77.52;101259.09;5055996;28;20021;-64
2023/08/04 08:35:45;;;;;;;7.85;3.20;;;;;;;20.80;80.10;101260.63;5055751;28;20158;-65
2023/08/04 08:38:11;;;;;;;7.40;3.20;;;;;;;20.90;79.17;101266.69;5055457;28;20029;-63
2023/08/04 08:40:36;;;;;;;5.22;2.40;;;;;;;20.94;78.16;101271.94;5055629;28;20029;-62
2023/08/04 08:43:01;;;;;;;7.25;2.65;;;;;;;20.90;76.74;101272.94;5047536;28;20032;-64
2023/08/04 08:45:28;;;;;;;6.10;2.78;;;;;;;20.97;78.50;101270.94;5044864;28;20032;-63
2023/08/04 08:47:55;;;;;;;5.03;2.75;;;;;;;21.01;77.32;101278.00;5036199;28;20025;-61
2023/08/04 08:50:23;;;;;;;6.45;2.90;;;;;;;20.98;76.70;101279.00;5034883;28;20486;-64
2023/08/04 08:53:06;;;;;;;4.78;2.80;;;;;;;21.00;77.46;101285.19;5035185;28;20064;-62
2023/08/04 08:55:33;;;;;;;9.07;3.17;;;;;;;21.01;76.59;101283.38;5034796;28;20021;-63
2023/08/04 08:58:01;;;;;;;5.10;2.80;;;;;;;20.95;77.44;101286.25;5035314;28;20071;-64
2023/08/04 09:00:28;;;;;;;7.55;2.70;;;;;;;20.84;75.57;101283.81;5035095;28;20140;-64
2023/08/04 09:02:54;;;;;;;6.38;2.67;;;;;;;20.79;76.77;101283.03;5016927;28;20491;-64
2023/08/04 09:05:21;;;;;;;6.20;2.92;;;;;;;20.76;77.05;101284.00;5017510;28;20053;-63
2023/08/04 09:07:48;;;;;;;5.28;2.50;;;;;;;20.76;76.78;101297.41;5035504;28;20108;-64
2023/08/04 09:10:14;;;;;;;6.47;2.80;;;;;;;20.79;76.61;101295.59;5035184;28;20496;-62
2023/08/04 09:12:39;;;;;;;6.05;2.70;;;;;;;20.85;77.12;101300.81;5034945;28;20029;-62
2023/08/04 09:15:05;;;;;;;7.00;2.50;;;;;;;20.95;76.69;101297.88;5035352;28;20025;-64
2023/08/04 09:17:35;;;;;;;4.63;2.40;;;;;;;20.96;74.42;101290.69;5034705;28;20030;-63
2023/08/04 09:20:02;;;;;;;6.80;2.50;;;;;;;20.98;75.08;101294.22;5034930;28;20145;-62
2023/08/04 09:22:31;;;;;;;6.00;2.33;;;;;;;21.02;75.07;101301.28;5033760;28;20022;-63
2023/08/04 09:25:01;;;;;;;4.30;2.53;;;;;;;21.14;75.26;101297.41;5034680;28;20485;-64
2023/08/04 09:27:34;;;;;;;5.43;2.30;;;;;;;21.37;74.69;101292.34;5034656;28;20498;-64
2023/08/04 09:30:06;;;;;;;5.30;2.63;;;;;;;21.45;75.94;101300.19;5033970;28;20063;-64
2023/08/04 09:32:39;;;;;;;3.53;2.17;;;;;;;21.45;73.56;101303.75;5034049;28;20037;-61
2023/08/04 09:35:06;;;;;;;6.72;2.35;;;;;;;21.51;71.80;101302.72;5034754;28;20471;-61
2023/08/04 09:37:33;;;;;;;5.95;2.45;;;;;;;21.60;71.13;101302.47;5034116;28;20114;-62
2023/08/04 09:40:04;;;;;;;6.88;2.58;;;;;;;21.66;71.98;101296.91;5034709;28;20029;-63
2023/08/04 09:42:35;;;;;;;6.00;2.45;;;;;;;21.62;71.52;101297.91;5034602;28;20059;-63
2023/08/04 09:45:01;;;;;;;3.85;2.20;;;;;;;21.67;70.85;101303.16;5034627;28;20188;-63
2023/08/04 09:47:27;;;;;;;4.95;2.20;;;;;;;21.79;72.46;101299.25;5051842;28;20526;-63
2023/08/04 09:49:54;;;;;;;5.75;2.30;;;;;;;21.98;72.55;101306.75;5054303;28;20124;-62
2023/08/04 09:52:24;;;;;;;8.65;2.60;;;;;;;22.03;72.41;101309.31;5054159;28;20036;-61
2023/08/04 09:54:53;;;;;;;3.65;2.03;;;;;;;22.13;70.58;101301.88;5054217;28;20025;-62
2023/08/04 09:57:19;;;;;;;6.50;2.50;;;;;;;22.11;71.92;101301.91;5054340;28;20025;-61
2023/08/04 09:59:47;;;;;;;4.63;1.90;;;;;;;21.95;67.72;101304.16;5054387;28;20364;-61
2023/08/04 10:02:14;;;;;;;4.03;2.00;;;;;;;21.83;67.46;101306.31;5054297;28;20128;-61
2023/08/04 10:04:40;;;;;;;4.65;1.70;;;;;;;21.77;66.95;101310.06;5036041;28;20033;-62
2023/08/04 10:07:09;;;;;;;4.50;2.20;;;;;;;21.90;67.11;101306.09;5054064;28;20025;-60
2023/08/04 10:09:35;;;;;;;3.90;1.90;;;;;;;22.02;68.57;101306.69;5054168;28;20057;-62
2023/08/04 10:12:01;;;;;;;4.20;2.00;;;;;;;21.95;69.22;101303.28;5053721;28;20028;-61
2023/08/04 10:14:27;;;;;;;4.20;2.25;;;;;;;22.01;69.67;101308.47;5053800;28;20419;-62
2023/08/04 10:16:54;;;;;;;5.40;2.03;;;;;;;22.03;68.04;101308.44;5053705;28;20040;-60
2023/08/04 10:19:20;;;;;;;4.20;2.03;;;;;;;22.19;68.59;101302.59;5053538;28;20053;-62
2023/08/04 10:21:45;;;;;;;4.70;2.10;;;;;;;22.29;68.15;101311.25;5035822;28;20485;-62
2023/08/04 10:24:12;;;;;;;5.72;2.25;;;;;;;22.83;67.87;101313.16;5053578;28;20060;-61
2023/08/04 10:26:52;;;;;;;8.07;2.05;;;;;;;23.11;66.64;101309.56;5053692;28;20017;-62
2023/08/04 10:29:19;;;;;;;5.45;2.20;;;;;;;23.40;66.98;101311.25;5053547;28;20363;-63
2023/08/04 10:31:53;;;;;;;4.57;2.10;;;;;;;23.86;65.75;101294.31;5053485;28;20056;-62
2023/08/04 10:34:24;;;;;;;5.88;2.30;;;;;;;24.39;64.18;101295.94;5053609;28;20086;-63
2023/08/04 10:36:53;;;;;;;5.40;2.10;;;;;;;24.35;62.65;101297.81;5053523;28;20475;-61
2023/08/04 10:39:29;;;;;;;5.80;2.40;;;;;;;24.30;64.07;101299.84;5053534;28;20029;-62
2023/08/04 10:41:55;;;;;;;5.38;2.35;;;;;;;23.96;61.29;101306.53;5052399;28;20032;-62
2023/08/04 10:44:24;;;;;;;7.20;2.40;;;;;;;23.70;62.87;101301.22;5053485;28;20382;-62
2023/08/04 10:46:49;;;;;;;6.05;2.40;;;;;;;23.65;63.96;101311.31;5051722;28;20049;-61
2023/08/04 10:49:15;;;;;;;8.52;2.70;;;;;;;23.36;61.74;101317.69;5052149;28;20477;-63
2023/08/04 10:51:40;;;;;;;5.45;2.25;;;;;;;23.09;63.63;101314.13;5052946;28;20035;-62
2023/08/04 10:54:06;;;;;;;6.28;2.63;;;;;;;23.04;64.22;101317.00;5053177;28;20116;-62
2023/08/04 10:56:36;;;;;;;10.80;2.88;;;;;;;23.01;64.19;101319.78;5052991;28;20433;-61
2023/08/04 10:59:01;;;;;;;6.13;2.45;;;;;;;23.15;65.31;101319.31;5053163;28;20028;-62
2023/08/04 11:01:27;;;;;;;7.22;2.75;;;;;;;23.22;63.97;101328.97;5035007;28;20454;-61
2023/08/04 11:03:54;;;;;;;6.97;2.53;;;;;;;23.20;63.51;101325.41;5052757;28;20394;-62
2023/08/04 11:06:19;;;;;;;12.32;2.75;;;;;;;23.32;64.51;101327.69;5052916;28;20036;-61
2023/08/04 11:08:45;;;;;;;7.55;2.40;;;;;;;23.17;63.47;101323.72;5053026;28;20123;-62
2023/08/04 11:11:10;;;;;;;7.45;2.58;;;;;;;23.15;64.72;101322.88;5052870;28;20029;-61
2023/08/04 11:13:38;;;;;;;6.55;2.55;;;;;;;23.46;66.77;101322.69;5052468;28;20025;-62